createdAt,value
2022-10-23T00:01:47.274Z,9.40
2022-10-23T00:04:17.957Z,8.00
2022-10-23T00:06:46.822Z,7.60
2022-10-23T00:09:18.102Z,8.60
2022-10-23T00:11:50.965Z,8.50
2022-10-23T00:14:21.592Z,9.00
2022-10-23T00:16:49.369Z,8.20
2022-10-23T00:19:18.254Z,8.40
2022-10-23T00:21:46.150Z,8.60
2022-10-23T00:24:13.797Z,8.40
2022-10-23T00:26:41.761Z,8.50
2022-10-23T00:29:10.932Z,8.20
2022-10-23T00:31:38.961Z,8.30
2022-10-23T00:34:08.575Z,7.70
2022-10-23T00:36:37.268Z,8.80
2022-10-23T00:39:05.753Z,8.60
2022-10-23T00:41:34.895Z,7.30
2022-10-23T00:44:30.890Z,7.80
2022-10-23T00:46:59.796Z,8.80
2022-10-23T00:49:29.405Z,7.30
2022-10-23T00:52:01.413Z,8.30
2022-10-23T00:54:34.147Z,7.80
2022-10-23T00:57:05.503Z,7.90
2022-10-23T00:59:34.332Z,7.90
2022-10-23T01:02:02.751Z,8.30
2022-10-23T01:04:32.833Z,7.40
2022-10-23T01:07:38.388Z,8.10
2022-10-23T01:10:38.955Z,8.10
2022-10-23T01:13:30.882Z,7.90
2022-10-23T01:16:18.617Z,8.00
2022-10-23T01:19:13.359Z,8.00
2022-10-23T01:21:56.065Z,8.10
2022-10-23T01:25:17.848Z,7.90
2022-10-23T01:27:53.035Z,8.00
2022-10-23T01:30:23.199Z,8.10
2022-10-23T01:33:33.997Z,8.00
2022-10-23T01:36:06.280Z,7.90
2022-10-23T01:39:00.336Z,8.20
2022-10-23T01:41:49.203Z,7.80
2022-10-23T01:44:36.476Z,8.50
2022-10-23T01:47:08.352Z,8.40
2022-10-23T01:49:48.419Z,7.20
2022-10-23T01:52:20.184Z,8.00
2022-10-23T01:54:53.419Z,8.10
2022-10-23T01:57:23.777Z,7.90
2022-10-23T01:59:56.828Z,7.50
2022-10-23T02:02:26.611Z,8.00
2022-10-23T02:05:09.447Z,9.00
2022-10-23T02:07:38.411Z,7.50
2022-10-23T02:10:08.318Z,8.30
2022-10-23T02:12:51.802Z,8.20
2022-10-23T02:15:33.255Z,8.50
2022-10-23T02:18:31.270Z,8.90
2022-10-23T02:21:13.810Z,8.00
2022-10-23T02:24:08.004Z,8.40
2022-10-23T02:26:42.338Z,7.80
2022-10-23T02:29:25.901Z,8.50
2022-10-23T02:31:53.983Z,8.30
2022-10-23T02:34:22.205Z,8.00
2022-10-23T02:36:50.062Z,8.00
2022-10-23T02:39:24.503Z,8.30
2022-10-23T02:42:03.707Z,8.20
2022-10-23T02:45:03.598Z,7.80
2022-10-23T02:47:51.038Z,7.50
2022-10-23T02:50:49.876Z,8.50
2022-10-23T02:53:27.872Z,7.70
2022-10-23T02:56:13.994Z,8.00
2022-10-23T02:58:54.952Z,8.20
2022-10-23T03:01:33.981Z,6.90
2022-10-23T03:04:05.708Z,6.70
2022-10-23T03:06:33.832Z,6.90
2022-10-23T03:09:07.947Z,7.60
2022-10-23T03:11:35.830Z,7.10
2022-10-23T03:14:04.120Z,7.10
2022-10-23T03:16:32.323Z,6.70
2022-10-23T03:19:00.137Z,7.40
2022-10-23T03:21:30.787Z,6.30
2022-10-23T03:23:58.722Z,6.70
2022-10-23T03:26:34.084Z,5.90
2022-10-23T03:29:02.188Z,7.10
2022-10-23T03:31:29.869Z,6.60
2022-10-23T03:33:59.658Z,6.40
2022-10-23T03:36:27.492Z,6.40
2022-10-23T03:38:56.679Z,7.00
2022-10-23T03:43:52.533Z,6.00
2022-10-23T03:46:20.197Z,6.50
2022-10-23T03:48:53.684Z,6.40
2022-10-23T03:51:21.370Z,6.50
2022-10-23T03:53:49.002Z,6.60
2022-10-23T03:56:17.626Z,6.30
2022-10-23T03:58:45.487Z,7.50
2022-10-23T04:01:14.022Z,6.50
2022-10-23T04:03:42.095Z,6.50
2022-10-23T04:06:09.795Z,6.40
2022-10-23T04:08:38.504Z,6.90
2022-10-23T04:11:13.390Z,7.00
2022-10-23T04:13:46.425Z,6.60
2022-10-23T04:16:14.678Z,6.60
2022-10-23T04:18:42.915Z,7.60
2022-10-23T04:21:12.156Z,7.10
2022-10-23T04:23:40.643Z,6.60
2022-10-23T04:26:16.700Z,6.90
2022-10-23T04:28:44.901Z,7.10
2022-10-23T04:31:12.873Z,6.90
2022-10-23T04:33:44.151Z,6.80
2022-10-23T04:36:26.279Z,7.20
2022-10-23T04:38:53.946Z,7.30
2022-10-23T04:41:21.791Z,8.00
2022-10-23T04:43:49.978Z,7.00
2022-10-23T04:46:18.454Z,7.40
2022-10-23T04:48:48.402Z,7.40
2022-10-23T04:51:16.511Z,7.70
2022-10-23T04:54:10.768Z,7.30
2022-10-23T04:57:04.818Z,7.70
2022-10-23T04:59:48.815Z,6.90
2022-10-23T05:02:16.844Z,7.30
2022-10-23T05:04:44.440Z,6.50
2022-10-23T05:07:30.943Z,7.80
2022-10-23T05:10:18.818Z,6.90
2022-10-23T05:12:57.002Z,7.60
2022-10-23T05:15:25.160Z,7.10
2022-10-23T05:17:58.134Z,7.00
2022-10-23T05:20:33.521Z,6.70
2022-10-23T05:23:03.093Z,7.10
2022-10-23T05:25:31.384Z,7.30
2022-10-23T05:28:06.738Z,7.20
2022-10-23T05:30:34.851Z,7.60
2022-10-23T05:33:04.007Z,7.40
2022-10-23T05:35:39.845Z,6.60
2022-10-23T05:38:08.574Z,7.30
2022-10-23T05:43:15.930Z,6.60
2022-10-23T05:45:50.052Z,8.50
2022-10-23T05:48:35.731Z,8.40
2022-10-23T05:51:11.600Z,7.80
2022-10-23T05:54:09.290Z,8.10
2022-10-23T05:56:45.117Z,7.20
2022-10-23T05:59:34.512Z,7.90
2022-10-23T06:02:21.355Z,8.20
2022-10-23T06:05:02.494Z,8.40
2022-10-23T06:07:46.760Z,7.90
2022-10-23T06:10:15.005Z,8.50
2022-10-23T06:12:45.440Z,7.30
2022-10-23T06:15:16.378Z,8.00
2022-10-23T06:20:26.593Z,6.90
2022-10-23T06:23:05.141Z,6.70
2022-10-23T06:25:56.674Z,6.20
2022-10-23T06:28:31.963Z,6.10
2022-10-23T06:31:00.475Z,6.50
2022-10-23T06:33:28.190Z,6.30
2022-10-23T06:35:56.533Z,6.20
2022-10-23T06:38:24.971Z,6.40
2022-10-23T06:40:56.838Z,6.10
2022-10-23T06:43:36.183Z,6.30
2022-10-23T06:46:32.910Z,6.30
2022-10-23T06:49:19.086Z,6.90
2022-10-23T06:51:48.695Z,7.00
2022-10-23T06:54:17.518Z,6.40
2022-10-23T06:56:51.427Z,7.20
2022-10-23T06:59:23.244Z,6.90
2022-10-23T07:04:26.416Z,5.60
2022-10-23T07:06:57.994Z,5.60
2022-10-23T07:09:30.001Z,6.10
2022-10-23T07:11:57.850Z,6.40
2022-10-23T07:14:32.366Z,6.20
2022-10-23T07:17:01.835Z,5.90
2022-10-23T07:19:29.753Z,6.40
2022-10-23T07:24:49.691Z,6.30
2022-10-23T07:27:23.387Z,6.40
2022-10-23T07:29:56.070Z,6.50
2022-10-23T07:32:24.867Z,6.20
2022-10-23T07:35:12.576Z,7.30
2022-10-23T07:37:46.252Z,6.80
2022-10-23T07:40:14.567Z,7.20
2022-10-23T07:42:45.130Z,6.20
2022-10-23T07:45:13.237Z,6.50
2022-10-23T07:47:44.037Z,5.60
2022-10-23T07:50:13.570Z,5.30
2022-10-23T07:52:41.499Z,6.20
2022-10-23T07:55:11.746Z,6.00
2022-10-23T07:57:47.095Z,5.60
2022-10-23T08:00:33.144Z,5.80
2022-10-23T08:03:08.544Z,6.30
2022-10-23T08:05:37.174Z,5.60
2022-10-23T08:08:05.146Z,5.30
2022-10-23T08:10:33.317Z,4.90
2022-10-23T08:13:01.227Z,5.60
2022-10-23T08:15:53.508Z,5.50
2022-10-23T08:18:42.813Z,6.40
2022-10-23T08:21:11.214Z,5.30
2022-10-23T08:23:39.138Z,4.70
2022-10-23T08:26:07.278Z,4.00
2022-10-23T08:28:36.417Z,4.10
2022-10-23T08:31:10.096Z,3.70
2022-10-23T08:33:39.414Z,3.70
2022-10-23T08:36:20.672Z,3.70
2022-10-23T08:38:49.206Z,4.20
2022-10-23T08:41:35.172Z,4.10
2022-10-23T08:44:45.162Z,4.00
2022-10-23T08:47:19.701Z,3.80
2022-10-23T08:50:31.144Z,4.00
2022-10-23T08:53:04.841Z,3.90
2022-10-23T08:55:45.138Z,3.60
2022-10-23T08:58:24.737Z,3.30
2022-10-23T09:00:52.954Z,3.30
2022-10-23T09:03:21.801Z,3.40
2022-10-23T09:06:09.031Z,3.70
2022-10-23T09:09:12.901Z,4.10
2022-10-23T09:11:59.750Z,3.70
2022-10-23T09:14:30.104Z,3.80
2022-10-23T09:17:28.958Z,3.10
2022-10-23T09:20:31.567Z,3.60
2022-10-23T09:23:02.009Z,3.30
2022-10-23T09:25:36.781Z,4.10
2022-10-23T09:28:05.741Z,3.90
2022-10-23T09:30:41.482Z,3.40
2022-10-23T09:33:18.621Z,3.80
2022-10-23T09:35:51.889Z,3.40
2022-10-23T09:38:45.501Z,3.30
2022-10-23T09:41:17.939Z,3.40
2022-10-23T09:43:45.569Z,3.20
2022-10-23T09:46:14.035Z,3.00
2022-10-23T09:48:44.918Z,2.60
2022-10-23T09:51:19.799Z,2.50
2022-10-23T09:53:51.655Z,2.60
2022-10-23T09:56:40.253Z,2.40
2022-10-23T09:59:10.984Z,2.40
2022-10-23T10:01:51.919Z,3.10
2022-10-23T10:04:40.949Z,2.90
2022-10-23T10:07:24.647Z,3.10
2022-10-23T10:09:57.539Z,3.00
2022-10-23T10:12:38.127Z,2.80
2022-10-23T10:15:31.040Z,2.50
2022-10-23T10:18:16.043Z,2.40
2022-10-23T10:20:54.906Z,2.40
2022-10-23T10:23:32.510Z,2.60
2022-10-23T10:26:16.054Z,2.50
2022-10-23T10:28:46.928Z,3.00
2022-10-23T10:31:26.738Z,2.80
2022-10-23T10:34:33.478Z,2.60
2022-10-23T10:37:13.675Z,2.40
2022-10-23T10:40:07.362Z,2.70
2022-10-23T10:43:05.525Z,2.50
2022-10-23T10:45:38.201Z,2.60
2022-10-23T10:48:30.493Z,2.50
2022-10-23T10:51:37.663Z,2.50
2022-10-23T10:54:18.942Z,3.00
2022-10-23T10:56:48.236Z,3.00
2022-10-23T10:59:15.872Z,3.20
2022-10-23T11:01:52.678Z,2.90
2022-10-23T11:04:37.159Z,3.40
2022-10-23T11:07:13.273Z,3.50
2022-10-23T11:09:42.654Z,3.70
2022-10-23T11:12:40.200Z,4.10
2022-10-23T11:15:34.451Z,4.00
2022-10-23T11:18:12.681Z,4.00
2022-10-23T11:20:46.722Z,4.00
2022-10-23T11:23:38.395Z,3.90
2022-10-23T11:26:46.877Z,4.20
2022-10-23T11:29:33.184Z,3.70
2022-10-23T11:32:26.062Z,4.00
2022-10-23T11:35:24.165Z,4.40
2022-10-23T11:38:00.994Z,4.50
2022-10-23T11:40:29.199Z,4.10
2022-10-23T11:42:57.064Z,4.00
2022-10-23T11:45:43.094Z,4.10
2022-10-23T11:48:13.754Z,4.10
2022-10-23T11:50:44.399Z,4.50
2022-10-23T11:53:30.972Z,3.70
2022-10-23T11:56:25.220Z,4.30
2022-10-23T11:58:55.922Z,4.40
2022-10-23T12:01:24.482Z,4.60
2022-10-23T12:04:00.382Z,4.40
2022-10-23T12:06:37.600Z,4.60
2022-10-23T12:09:21.989Z,4.80
2022-10-23T12:12:07.010Z,4.10
2022-10-23T12:14:39.583Z,3.90
2022-10-23T12:17:31.682Z,4.10
2022-10-23T12:20:21.411Z,4.20
2022-10-23T12:23:19.202Z,4.40
2022-10-23T12:25:52.528Z,4.20
2022-10-23T12:28:26.483Z,4.90
2022-10-23T12:31:25.789Z,4.30
2022-10-23T12:34:01.246Z,4.50
2022-10-23T12:37:17.681Z,4.80
2022-10-23T12:39:52.678Z,4.00
2022-10-23T12:42:25.655Z,4.80
2022-10-23T12:45:00.796Z,4.00
2022-10-23T12:47:30.539Z,3.90
2022-10-23T12:49:58.323Z,3.70
2022-10-23T12:52:26.262Z,3.40
2022-10-23T12:54:54.233Z,3.40
2022-10-23T12:57:28.193Z,3.90
2022-10-23T12:59:59.275Z,3.50
2022-10-23T13:02:30.329Z,3.40
2022-10-23T13:05:02.272Z,3.10
2022-10-23T13:07:37.632Z,3.10
2022-10-23T13:10:06.268Z,3.70
2022-10-23T13:12:39.128Z,3.50
2022-10-23T13:15:06.900Z,3.20
2022-10-23T13:17:39.336Z,3.10
2022-10-23T13:20:24.190Z,3.10
2022-10-23T13:23:00.753Z,3.20
2022-10-23T13:25:32.087Z,3.20
2022-10-23T13:28:08.764Z,3.20
2022-10-23T13:30:42.094Z,2.90
2022-10-23T13:33:21.940Z,2.80
2022-10-23T13:35:57.756Z,2.60
2022-10-23T13:38:29.836Z,2.70
2022-10-23T13:41:02.758Z,2.90
2022-10-23T13:43:32.845Z,2.70
2022-10-23T13:46:01.847Z,2.50
2022-10-23T13:48:30.449Z,2.60
2022-10-23T13:51:06.639Z,2.40
2022-10-23T13:53:34.432Z,2.50
2022-10-23T13:56:02.126Z,2.30
2022-10-23T13:58:29.775Z,2.60
2022-10-23T14:00:58.968Z,2.30
2022-10-23T14:03:26.635Z,2.20
2022-10-23T14:05:54.353Z,2.70
2022-10-23T14:08:22.297Z,2.40
2022-10-23T14:10:49.939Z,2.30
2022-10-23T14:13:17.597Z,2.20
2022-10-23T14:15:53.292Z,2.40
2022-10-23T14:18:21.251Z,2.40
2022-10-23T14:20:49.232Z,2.40
2022-10-23T14:23:16.889Z,2.50
2022-10-23T14:25:44.542Z,2.80
2022-10-23T14:28:12.221Z,2.70
2022-10-23T14:30:39.823Z,2.90
2022-10-23T14:33:07.538Z,3.70
2022-10-23T14:35:39.672Z,3.20
2022-10-23T14:38:07.301Z,3.20
2022-10-23T14:40:38.756Z,3.10
2022-10-23T14:43:06.493Z,2.90
2022-10-23T14:45:34.150Z,2.70
2022-10-23T14:48:02.652Z,2.90
2022-10-23T14:50:36.494Z,3.20
2022-10-23T14:53:04.343Z,3.40
2022-10-23T14:55:32.059Z,3.30
2022-10-23T14:57:59.638Z,2.90
2022-10-23T15:00:27.536Z,2.50
2022-10-23T15:02:55.169Z,3.10
2022-10-23T15:05:22.844Z,2.90
2022-10-23T15:07:50.610Z,2.80
2022-10-23T15:10:18.546Z,3.30
2022-10-23T15:12:46.688Z,3.30
2022-10-23T15:15:14.646Z,3.00
2022-10-23T15:17:42.412Z,3.20
2022-10-23T15:20:10.396Z,3.10
2022-10-23T15:22:38.024Z,3.10
2022-10-23T15:25:06.296Z,3.90
2022-10-23T15:27:33.923Z,4.30
2022-10-23T15:30:01.777Z,4.10
2022-10-23T15:35:00.055Z,4.30
2022-10-23T15:37:27.923Z,4.30
2022-10-23T15:39:59.701Z,5.70
2022-10-23T15:42:29.994Z,4.90
2022-10-23T15:44:57.824Z,5.40
2022-10-23T15:47:25.468Z,6.00
2022-10-23T15:49:53.349Z,5.90
2022-10-23T15:52:21.100Z,6.70
2022-10-23T15:54:48.700Z,6.00
2022-10-23T15:57:16.389Z,5.40
2022-10-23T15:59:44.188Z,5.40
2022-10-23T16:02:12.179Z,5.20
2022-10-23T16:04:40.187Z,5.40
2022-10-23T16:07:08.962Z,5.70
2022-10-23T16:09:37.310Z,5.80
2022-10-23T16:12:05.268Z,5.80
2022-10-23T16:14:32.962Z,5.60
2022-10-23T16:17:00.607Z,4.80
2022-10-23T16:19:28.482Z,5.20
2022-10-23T16:21:56.229Z,4.90
2022-10-23T16:24:23.985Z,5.30
2022-10-23T16:26:53.485Z,5.20
2022-10-23T16:29:23.595Z,5.10
2022-10-23T16:31:55.638Z,5.30
2022-10-23T16:34:23.721Z,5.40
2022-10-23T16:36:51.421Z,4.60
2022-10-23T16:39:39.100Z,5.00
2022-10-23T16:42:25.780Z,5.00
2022-10-23T16:45:10.525Z,5.30
2022-10-23T16:47:38.168Z,5.50
2022-10-23T16:50:06.057Z,5.20
2022-10-23T16:52:34.605Z,5.10
2022-10-23T16:55:02.376Z,6.50
2022-10-23T16:57:30.095Z,5.80
2022-10-23T16:59:57.950Z,5.80
2022-10-23T17:02:25.639Z,6.10
2022-10-23T17:04:53.480Z,6.30
2022-10-23T17:07:24.231Z,6.00
2022-10-23T17:09:52.066Z,5.20
2022-10-23T17:12:19.702Z,5.50
2022-10-23T17:14:47.886Z,5.70
2022-10-23T17:17:15.559Z,5.50
2022-10-23T17:19:46.308Z,6.30
2022-10-23T17:22:15.355Z,5.70
2022-10-23T17:24:46.156Z,5.30
2022-10-23T17:27:16.921Z,5.10
2022-10-23T17:29:44.528Z,4.90
2022-10-23T17:32:12.222Z,5.10
2022-10-23T17:34:40.342Z,4.90
2022-10-23T17:37:08.984Z,4.90
2022-10-23T17:39:36.575Z,5.40
2022-10-23T17:42:04.538Z,5.30
2022-10-23T17:44:32.389Z,5.40
2022-10-23T17:47:00.229Z,6.00
2022-10-23T17:49:28.229Z,5.90
2022-10-23T17:51:57.420Z,5.90
2022-10-23T17:54:27.248Z,6.00
2022-10-23T17:56:56.099Z,6.00
2022-10-23T17:59:23.951Z,6.70
2022-10-23T18:01:52.109Z,7.10
2022-10-23T18:04:21.167Z,9.00
2022-10-23T18:09:21.492Z,8.80
2022-10-23T18:14:19.613Z,8.30
2022-10-23T18:16:47.685Z,8.60
2022-10-23T18:19:18.506Z,9.90
2022-10-23T18:21:47.298Z,9.60
2022-10-23T18:26:44.413Z,8.50
2022-10-23T18:29:12.758Z,8.60
2022-10-23T18:31:41.319Z,8.80
2022-10-23T18:34:15.646Z,8.90
2022-10-23T18:36:43.907Z,10.30
2022-10-23T18:39:14.834Z,9.10
2022-10-23T18:41:44.633Z,10.00
2022-10-23T18:44:17.242Z,9.10
2022-10-23T18:46:46.876Z,9.40
2022-10-23T18:49:17.321Z,9.30
2022-10-23T18:51:45.389Z,10.60
2022-10-23T18:54:15.826Z,9.60
2022-10-23T18:56:44.517Z,9.40
2022-10-23T18:59:15.730Z,8.40
2022-10-23T19:01:43.831Z,9.10
2022-10-23T19:04:14.159Z,8.60
2022-10-23T19:06:42.402Z,9.10
2022-10-23T19:09:11.848Z,9.40
2022-10-23T19:11:41.255Z,8.70
2022-10-23T19:14:09.600Z,8.80
2022-10-23T19:16:50.213Z,8.30
2022-10-23T19:19:22.594Z,7.40
2022-10-23T19:21:50.756Z,7.60
2022-10-23T19:24:23.671Z,7.20
2022-10-23T19:26:51.930Z,7.10
2022-10-23T19:29:23.294Z,6.20
2022-10-23T19:31:51.863Z,6.50
2022-10-23T19:34:22.594Z,6.70
2022-10-23T19:36:52.499Z,6.50
2022-10-23T19:39:20.679Z,6.00
2022-10-23T19:41:51.438Z,6.20
2022-10-23T19:44:20.387Z,5.50
2022-10-23T19:46:48.698Z,6.10
2022-10-23T19:49:17.213Z,6.00
2022-10-23T19:51:50.921Z,5.80
2022-10-23T19:54:20.812Z,5.50
2022-10-23T19:59:17.041Z,5.10
2022-10-23T20:01:47.841Z,4.60
2022-10-23T20:04:18.660Z,5.00
2022-10-23T20:06:47.563Z,5.20
2022-10-23T20:09:15.468Z,4.30
2022-10-23T20:11:45.471Z,5.30
2022-10-23T20:14:13.858Z,5.60
2022-10-23T20:16:45.224Z,5.60
2022-10-23T20:21:50.204Z,5.50
2022-10-23T20:26:50.005Z,5.90
2022-10-23T20:29:18.219Z,5.60
2022-10-23T20:31:46.194Z,6.40
2022-10-23T20:34:13.984Z,6.00
2022-10-23T20:36:46.767Z,5.70
2022-10-23T20:39:26.974Z,5.90
2022-10-23T20:41:56.386Z,6.20
2022-10-23T20:44:24.340Z,6.50
2022-10-23T20:46:52.539Z,6.00
2022-10-23T20:49:20.827Z,5.90
2022-10-23T20:51:55.706Z,5.90
2022-10-23T20:54:26.111Z,6.00
2022-10-23T20:56:53.939Z,5.70
2022-10-23T20:59:21.808Z,5.10
2022-10-23T21:01:53.090Z,6.70
2022-10-23T21:04:24.435Z,5.60
2022-10-23T21:07:10.676Z,5.10
2022-10-23T21:09:40.302Z,5.50
2022-10-23T21:12:08.640Z,5.90
2022-10-23T21:14:36.773Z,5.70
2022-10-23T21:17:04.589Z,5.70
2022-10-23T21:19:33.504Z,5.50
2022-10-23T21:22:01.161Z,5.50
2022-10-23T21:24:28.886Z,5.30
2022-10-23T21:26:56.754Z,6.10
2022-10-23T21:29:24.488Z,6.00
2022-10-23T21:31:57.987Z,5.70
2022-10-23T21:34:27.019Z,5.10
2022-10-23T21:39:44.191Z,5.40
2022-10-23T21:42:13.546Z,5.80
2022-10-23T21:44:41.245Z,5.80
2022-10-23T21:47:09.590Z,6.40
2022-10-23T21:49:37.246Z,5.80
2022-10-23T21:52:05.003Z,5.50
2022-10-23T21:54:33.042Z,5.30
2022-10-23T21:57:03.327Z,5.40
2022-10-23T21:59:33.200Z,6.30
2022-10-23T22:02:04.243Z,6.00
2022-10-23T22:04:32.063Z,6.20
2022-10-23T22:07:00.024Z,6.20
2022-10-23T22:09:27.845Z,5.90
2022-10-23T22:11:56.135Z,5.60
2022-10-23T22:14:23.745Z,6.00
2022-10-23T22:16:52.439Z,6.40
2022-10-23T22:19:22.233Z,6.70
2022-10-23T22:21:50.861Z,6.60
2022-10-23T22:24:19.332Z,6.60
2022-10-23T22:26:50.191Z,5.70
2022-10-23T22:29:24.221Z,6.70
2022-10-23T22:31:52.707Z,6.50
2022-10-23T22:34:48.404Z,7.00
2022-10-23T22:37:14.338Z,7.40
2022-10-23T22:39:42.561Z,7.40
2022-10-23T22:42:11.520Z,7.40
2022-10-23T22:44:39.378Z,7.10
2022-10-23T22:47:07.491Z,6.90
2022-10-23T22:49:35.173Z,7.50
2022-10-23T22:52:03.112Z,6.80
2022-10-23T22:54:31.644Z,7.50
2022-10-23T22:56:59.375Z,7.10
2022-10-23T22:59:27.146Z,7.40
2022-10-23T23:01:55.134Z,8.20
2022-10-23T23:04:39.213Z,8.10
2022-10-23T23:07:11.180Z,7.20
2022-10-23T23:09:44.583Z,7.70
2022-10-23T23:12:14.063Z,7.70
2022-10-23T23:14:42.978Z,7.80
2022-10-23T23:17:11.473Z,8.20
2022-10-23T23:19:39.569Z,8.60
2022-10-23T23:22:07.406Z,7.40
2022-10-23T23:24:35.166Z,7.60
2022-10-23T23:27:02.794Z,7.90
2022-10-23T23:29:31.171Z,7.70
2022-10-23T23:31:59.033Z,8.00
2022-10-23T23:34:26.706Z,7.10
2022-10-23T23:36:54.457Z,8.00
2022-10-23T23:39:22.325Z,8.20
2022-10-23T23:41:50.011Z,7.90
2022-10-23T23:44:17.802Z,8.30
2022-10-23T23:46:45.625Z,9.00
2022-10-23T23:49:13.204Z,7.90
2022-10-23T23:51:40.973Z,7.90
2022-10-23T23:54:08.774Z,7.40
2022-10-23T23:56:36.446Z,7.90
2022-10-23T23:59:04.755Z,6.40
